»·PEaware :: N112VV KBFI-KPWT

N112VV :: KBFI-KPWT

FLIGHT INFORMATION

Flight Status: Arrived
Operator: Privately registered:
United States
More flights under this callsign
Pilot: Anonymous 27337 (27337)
Aircraft: Unknown
(N102)
More flights by this aircraft type
Origin: KBFI Boeing Field/King Co Intl
United States
Destination: KPWT Bremerton Natl
United States
More flights between these airports :: More routes between these airports
Route: ZOLGI
File this flight plan on PilotEdge
Remarks:
Altitude:
(Current/Filed)
4,000ft
Speed:
(Current/Filed)
170kts
Departed: 30-Oct-21 11:59 AM
Arrived: 30-Oct-21 12:26 PM
Distance/Time
Traveled:
19nm/0:27
Distance/Time
To Go:
Arrived

Flight Plot

Page will automatically refresh every two minutes.

Flight plan parsing failed; only flown route is shown


Map Options




Map Legend


Flown Route
Filed Route
Departure Airport
Arrival Airport
Navaid (VOR, NDB)
Fix

Horizontal Profiles

Position Reports

Time Latitude Longitude Heading Altitude Ground
Speed
30-Oct-21 11:36 47.536838 -122.304871 142 20ft 0kts
30-Oct-21 11:37 47.536838 -122.304871 142 20ft 0kts
30-Oct-21 11:38 47.536838 -122.304871 142 20ft 0kts
30-Oct-21 11:39 47.536838 -122.304871 142 20ft 0kts
30-Oct-21 11:40 47.536838 -122.304871 142 20ft 0kts
30-Oct-21 11:41 47.536838 -122.304871 142 20ft 0kts
30-Oct-21 11:42 47.536838 -122.304871 142 20ft 0kts
30-Oct-21 11:43 47.536838 -122.304871 142 20ft 0kts
30-Oct-21 11:44 47.536838 -122.304871 142 20ft 0kts
30-Oct-21 11:45 47.536838 -122.304871 142 20ft 0kts
30-Oct-21 11:46 47.536838 -122.304871 142 20ft 0kts
30-Oct-21 11:47 47.536838 -122.304871 142 20ft 0kts
30-Oct-21 11:48 47.536838 -122.304871 142 20ft 0kts
30-Oct-21 11:49 47.536838 -122.304871 142 20ft 0kts
30-Oct-21 11:50 47.536817 -122.304850 146 20ft 1kts
30-Oct-21 11:51 47.534398 -122.303172 153 19ft 18kts
30-Oct-21 11:52 47.530839 -122.300142 150 18ft 23kts
30-Oct-21 11:53 47.527285 -122.298461 167 17ft 13kts
30-Oct-21 11:54 47.524840 -122.296454 151 17ft 17kts
30-Oct-21 11:55 47.521497 -122.293615 148 19ft 18kts
30-Oct-21 11:56 47.520008 -122.292370 147 21ft 0kts
30-Oct-21 11:57 47.519523 -122.292189 187 21ft 11kts
30-Oct-21 11:58 47.524797 -122.298031 330 36ft 105kts
30-Oct-21 11:59 47.545766 -122.315909 329 776ft 132kts
30-Oct-21 12:00 47.573737 -122.340411 329 1512ft 142kts
30-Oct-21 12:01 47.601602 -122.375513 310 2232ft 143kts
30-Oct-21 12:02 47.626360 -122.418499 310 2993ft 147kts
30-Oct-21 12:03 47.640278 -122.469505 238 3752ft 144kts
30-Oct-21 12:04 47.608356 -122.503582 219 4039ft 145kts
30-Oct-21 12:05 47.577997 -122.542463 222 3997ft 144kts
30-Oct-21 12:06 47.547605 -122.581499 223 4004ft 157kts
30-Oct-21 12:07 47.512484 -122.627625 224 3998ft 171kts
30-Oct-21 12:08 47.474768 -122.678249 223 3997ft 172kts
30-Oct-21 12:09 47.435257 -122.729087 221 3998ft 172kts
30-Oct-21 12:10 47.395675 -122.778466 221 4000ft 171kts
30-Oct-21 12:11 47.356919 -122.827637 223 3999ft 171kts
30-Oct-21 12:12 47.319254 -122.878014 223 3996ft 170kts
30-Oct-21 12:13 47.285376 -122.923119 223 3975ft 116kts
30-Oct-21 12:14 47.260464 -122.955412 223 4003ft 124kts
30-Oct-21 12:15 47.236087 -122.995457 273 4001ft 128kts
30-Oct-21 12:16 47.260863 -122.991199 70 4001ft 136kts
30-Oct-21 12:17 47.276480 -122.934795 33 3854ft 137kts
30-Oct-21 12:18 47.310901 -122.908559 28 3260ft 121kts
30-Oct-21 12:19 47.344858 -122.883855 20 2232ft 134kts
30-Oct-21 12:20 47.376135 -122.862434 22 2014ft 117kts
30-Oct-21 12:21 47.411012 -122.839334 28 1971ft 160kts
30-Oct-21 12:22 47.444950 -122.807769 29 1363ft 129kts
30-Oct-21 12:23 47.468709 -122.785061 30 882ft 87kts
30-Oct-21 12:24 47.485318 -122.769509 29 445ft 65kts
30-Oct-21 12:25 47.490872 -122.765656 310 445ft 11kts
30-Oct-21 12:26 47.491721 -122.765898 145 445ft 0kts
30-Oct-21 12:27 47.491721 -122.765898 145 445ft 0kts

Navigation Log

Ident Type
Flight plan parsing failed, navigation log unavailable